Time;durP1;ratioP1;P1;durP2;ratioP2;P2;SDS_P1;SDS_P2;PMS_P1;PMS_P2;Temp;Humidity;BMP_temperature;BMP_pressure;BME280_temperature;BME280_humidity;BME280_pressure;Samples;Min_cycle;Max_cycle;Signal;HPM_P1;HPM_P2
2021/01/28 00:02:20;;;;;;;114.13;38.33;;;7.90;99.90;;;-146.47;100.00;66290.13;5038217;28;20286;-80
2021/01/28 00:05:08;;;;;;;109.77;34.27;;;7.90;99.90;;;-146.47;100.00;66290.13;5039035;28;20211;-81
2021/01/28 00:07:53;;;;;;;112.87;36.60;;;7.90;99.90;;;-146.47;100.00;66290.13;5040642;28;20247;-81
2021/01/28 00:10:39;;;;;;;118.07;35.67;;;7.90;99.90;;;-146.47;100.00;66290.13;5038032;28;20204;-80
2021/01/28 00:13:24;;;;;;;113.60;36.33;;;7.90;99.90;;;-146.47;100.00;66290.13;5035190;28;20211;-80
2021/01/28 00:16:09;;;;;;;115.80;36.53;;;7.90;99.90;;;-146.47;100.00;66290.13;5031963;28;20609;-81
2021/01/28 00:18:55;;;;;;;119.23;35.73;;;7.90;99.90;;;-146.47;100.00;66290.13;5026998;28;20230;-79
2021/01/28 00:21:41;;;;;;;99.47;31.83;;;7.90;99.90;;;-146.47;100.00;66290.13;5038051;28;20303;-79
2021/01/28 00:24:26;;;;;;;127.93;37.23;;;7.90;99.90;;;-146.47;100.00;66290.13;5038611;28;20199;-79
2021/01/28 00:27:12;;;;;;;111.90;34.57;;;7.90;99.90;;;-146.47;100.00;66290.13;5040100;28;20433;-81
2021/01/28 00:29:57;;;;;;;112.80;35.57;;;7.90;99.90;;;-146.47;100.00;66290.13;5038962;28;20211;-80
2021/01/28 00:32:42;;;;;;;118.67;33.93;;;7.90;99.90;;;-146.47;100.00;66290.13;5039047;28;20536;-80
2021/01/28 00:35:35;;;;;;;130.53;37.37;;;8.00;99.90;;;-146.47;100.00;66290.13;5039771;28;20222;-81
2021/01/28 00:38:24;;;;;;;108.47;32.70;;;8.00;99.90;;;-146.47;100.00;66290.13;5031225;28;20228;-80
2021/01/28 00:41:11;;;;;;;106.17;33.37;;;7.90;99.90;;;-146.47;100.00;66290.13;5038678;28;20242;-81
2021/01/28 00:43:57;;;;;;;117.93;34.30;;;8.00;99.90;;;-146.47;100.00;66290.13;5039170;28;20258;-80
2021/01/28 00:46:42;;;;;;;100.67;32.37;;;7.90;99.90;;;-146.47;100.00;66290.13;5037438;28;20216;-81
2021/01/28 00:49:27;;;;;;;112.33;34.20;;;7.90;99.90;;;-146.47;100.00;66290.13;5039279;28;20219;-80
2021/01/28 00:52:12;;;;;;;107.67;32.07;;;8.00;99.90;;;-146.47;100.00;66290.13;5035139;28;20207;-80
2021/01/28 00:54:58;;;;;;;102.57;32.10;;;7.90;99.90;;;-146.47;100.00;66290.13;5033534;28;20254;-81
2021/01/28 00:57:44;;;;;;;90.33;32.80;;;8.00;99.90;;;-146.47;100.00;66290.13;5033816;28;20244;-80
2021/01/28 01:00:33;;;;;;;102.23;30.70;;;7.90;99.90;;;-146.47;100.00;66290.13;5032931;28;20268;-80
2021/01/28 01:03:21;;;;;;;94.40;31.17;;;7.90;99.90;;;-146.47;100.00;66290.13;5038613;28;20251;-80
2021/01/28 01:06:06;;;;;;;97.23;31.23;;;7.90;99.90;;;-146.47;100.00;66290.13;5040435;28;20227;-81
2021/01/28 01:08:51;;;;;;;114.77;34.23;;;7.90;99.90;;;-146.47;100.00;66290.13;5027629;28;20223;-81
2021/01/28 01:11:37;;;;;;;101.60;32.47;;;7.90;99.90;;;-146.47;100.00;66290.13;5031753;28;20218;-81
2021/01/28 01:14:22;;;;;;;106.73;31.17;;;7.90;99.90;;;-146.47;100.00;66290.13;5036692;28;20239;-80
2021/01/28 01:17:07;;;;;;;99.30;30.13;;;7.90;99.90;;;-146.47;100.00;66290.13;5035486;28;20219;-81
2021/01/28 01:19:53;;;;;;;97.57;30.13;;;7.90;99.90;;;-146.47;100.00;66290.13;5028977;28;20303;-81
2021/01/28 01:22:38;;;;;;;102.80;32.57;;;7.90;99.90;;;-146.47;100.00;66290.13;5032622;28;20260;-80
2021/01/28 01:25:24;;;;;;;112.37;33.60;;;7.90;99.90;;;-146.47;100.00;66290.13;5033626;28;20206;-80
2021/01/28 01:28:10;;;;;;;98.63;31.97;;;7.90;99.90;;;-146.47;100.00;66290.13;5039116;28;20227;-81
2021/01/28 01:30:56;;;;;;;97.93;32.83;;;7.90;99.90;;;-146.47;100.00;66290.13;5033115;28;20214;-79
2021/01/28 01:33:41;;;;;;;95.33;33.13;;;7.90;99.90;;;-146.47;100.00;66290.13;5037121;28;20690;-82
2021/01/28 01:36:26;;;;;;;93.47;32.73;;;7.90;99.90;;;-146.47;100.00;66290.13;5038304;28;20230;-80
2021/01/28 01:39:12;;;;;;;82.40;30.60;;;7.90;99.90;;;-146.47;100.00;66290.13;5034474;28;20278;-81
2021/01/28 01:41:57;;;;;;;101.80;32.63;;;7.90;99.90;;;-146.47;100.00;66290.13;5037638;28;20691;-80
2021/01/28 01:44:43;;;;;;;94.20;31.67;;;7.90;99.90;;;-146.47;100.00;66290.13;5038437;28;20311;-79
2021/01/28 01:47:47;;;;;;;107.93;31.80;;;7.90;99.90;;;-146.47;100.00;66290.13;5030929;28;20207;-81
2021/01/28 01:50:42;;;;;;;92.57;31.77;;;7.90;99.90;;;-146.47;100.00;66290.13;5035183;28;20340;-81
2021/01/28 01:53:33;;;;;;;86.77;30.37;;;7.80;99.90;;;-146.47;100.00;66290.13;5036890;28;20211;-79
2021/01/28 01:56:25;;;;;;;78.63;29.00;;;7.90;99.90;;;-146.47;100.00;66290.13;5038653;28;20279;-80
2021/01/28 01:59:15;;;;;;;77.33;28.60;;;7.90;99.90;;;-146.47;100.00;66290.13;5035744;28;20284;-81
2021/01/28 02:02:08;;;;;;;74.93;27.77;;;7.90;99.90;;;-146.47;100.00;66290.13;5025208;28;20621;-79
2021/01/28 02:05:03;;;;;;;75.33;27.63;;;7.90;99.90;;;-146.47;100.00;66290.13;5037685;28;20199;-80
2021/01/28 02:07:49;;;;;;;98.50;32.50;;;7.90;99.90;;;-146.47;100.00;66290.13;5043419;28;20247;-82
2021/01/28 02:10:34;;;;;;;98.80;32.43;;;7.90;99.90;;;-146.47;100.00;66290.13;5039961;28;20219;-81
2021/01/28 02:13:19;;;;;;;102.00;31.50;;;7.90;99.90;;;-146.47;100.00;66290.13;5026220;28;20208;-81
2021/01/28 02:16:06;;;;;;;102.50;31.43;;;7.90;99.90;;;-146.47;100.00;66290.13;5039841;28;20199;-81
2021/01/28 02:18:56;;;;;;;86.20;31.20;;;7.90;99.90;;;-146.47;100.00;66290.13;5038386;28;20235;-81
2021/01/28 02:21:41;;;;;;;88.73;29.40;;;7.90;99.90;;;-146.47;100.00;66290.13;5038500;28;20214;-81
2021/01/28 02:24:38;;;;;;;128.17;37.13;;;7.90;99.90;;;-146.47;100.00;66290.13;5039311;28;20238;-81
2021/01/28 02:27:24;;;;;;;135.30;35.93;;;7.90;99.90;;;-146.47;100.00;66290.13;5036844;28;20254;-81
2021/01/28 02:30:10;;;;;;;135.47;38.00;;;7.90;99.90;;;-146.47;100.00;66290.13;5043577;28;20191;-79
2021/01/28 02:32:56;;;;;;;129.10;33.77;;;7.90;99.90;;;-146.47;100.00;66290.13;5036699;28;20275;-81
2021/01/28 02:35:49;;;;;;;116.73;32.67;;;7.90;99.90;;;-146.47;100.00;66290.13;5038406;28;20253;-80
2021/01/28 02:38:35;;;;;;;177.57;40.27;;;7.90;99.90;;;-146.47;100.00;66290.13;5040378;28;20286;-80
2021/01/28 02:41:20;;;;;;;213.90;44.03;;;7.90;99.90;;;-146.47;100.00;66290.13;5039394;28;20224;-78
2021/01/28 02:44:07;;;;;;;181.80;41.13;;;7.80;99.90;;;-146.47;100.00;66290.13;5035057;28;20204;-80
2021/01/28 02:46:52;;;;;;;162.93;40.67;;;7.80;99.90;;;-146.47;100.00;66290.13;5035342;28;20222;-80
2021/01/28 02:49:37;;;;;;;172.30;40.93;;;7.80;99.90;;;-146.47;100.00;66290.13;5038942;28;20243;-80
2021/01/28 02:52:22;;;;;;;134.87;36.60;;;7.80;99.90;;;-146.47;100.00;66290.13;5027935;28;20203;-81
2021/01/28 02:55:09;;;;;;;121.57;34.00;;;7.80;99.90;;;-146.47;100.00;66290.13;5030214;28;20699;-81
2021/01/28 02:57:54;;;;;;;109.27;33.57;;;7.80;99.90;;;-146.47;100.00;66290.13;5030036;28;20260;-81
2021/01/28 03:00:40;;;;;;;113.13;32.03;;;7.80;99.90;;;-146.47;100.00;66290.13;5028857;28;20212;-81
2021/01/28 03:03:26;;;;;;;132.37;34.93;;;7.80;99.90;;;-146.47;100.00;66290.13;5041979;28;20235;-79
2021/01/28 03:06:13;;;;;;;115.20;34.83;;;7.80;99.90;;;-146.47;100.00;66290.13;5038023;28;20212;-79
2021/01/28 03:08:59;;;;;;;133.20;33.10;;;7.80;99.90;;;-146.47;100.00;66290.13;5040094;28;20227;-79
2021/01/28 03:11:44;;;;;;;107.67;34.23;;;7.60;99.90;;;-146.47;100.00;66290.13;5038670;28;20601;-79
2021/01/28 03:14:29;;;;;;;126.63;37.37;;;7.80;99.90;;;-146.47;100.00;66290.13;5035027;28;20691;-81
2021/01/28 03:17:16;;;;;;;121.33;34.40;;;7.80;99.90;;;-146.47;100.00;66290.13;5028801;28;20203;-79
2021/01/28 03:20:01;;;;;;;104.27;31.47;;;7.70;99.90;;;-146.47;100.00;66290.13;5036534;28;20205;-80
2021/01/28 03:22:46;;;;;;;101.67;31.80;;;7.70;99.90;;;-146.47;100.00;66290.13;5037896;28;20277;-79
2021/01/28 03:25:32;;;;;;;119.03;32.57;;;7.70;99.90;;;-146.47;100.00;66290.13;5033430;28;20208;-79
2021/01/28 03:28:17;;;;;;;123.57;31.27;;;7.70;99.90;;;-146.47;100.00;66290.13;5037851;28;20219;-80
2021/01/28 03:31:03;;;;;;;116.03;32.37;;;7.70;99.90;;;-146.47;100.00;66290.13;5035935;28;20623;-79
2021/01/28 03:33:51;;;;;;;138.73;33.70;;;7.70;99.90;;;-146.47;100.00;66290.13;5038673;28;20691;-81
2021/01/28 03:36:36;;;;;;;128.17;34.40;;;7.70;99.90;;;-146.47;100.00;66290.13;5038913;28;20292;-79
2021/01/28 03:39:22;;;;;;;129.00;32.27;;;7.70;99.90;;;-146.47;100.00;66290.13;5040561;28;20274;-80
2021/01/28 03:42:07;;;;;;;141.73;32.00;;;7.70;99.90;;;-146.47;100.00;66290.13;5039382;28;20770;-79
2021/01/28 03:44:52;;;;;;;235.27;40.70;;;7.70;99.90;;;-146.47;100.00;66290.13;5036333;28;20290;-81
2021/01/28 03:47:37;;;;;;;197.30;38.07;;;7.70;99.90;;;-146.47;100.00;66290.13;5034709;28;20285;-80
2021/01/28 03:50:28;;;;;;;261.63;41.50;;;7.70;99.90;;;-146.47;100.00;66290.13;5038304;28;20243;-80
2021/01/28 03:53:13;;;;;;;235.20;42.20;;;7.70;99.90;;;-146.47;100.00;66290.13;5035486;28;20215;-81
2021/01/28 03:55:58;;;;;;;262.20;43.50;;;7.70;99.90;;;-146.47;100.00;66290.13;5040858;28;20208;-79
2021/01/28 03:58:43;;;;;;;279.73;46.43;;;7.70;99.90;;;-146.47;100.00;66290.13;5040549;28;20227;-81
2021/01/28 04:01:28;;;;;;;241.03;41.40;;;7.70;99.90;;;-146.47;100.00;66290.13;5038740;28;20207;-81
2021/01/28 04:04:14;;;;;;;158.13;34.77;;;7.50;99.90;;;-146.47;100.00;66290.13;5043330;28;20227;-81
2021/01/28 04:07:01;;;;;;;210.27;38.17;;;7.70;99.90;;;-146.47;100.00;66290.13;5040072;28;20206;-81
2021/01/28 04:09:46;;;;;;;299.13;44.93;;;7.70;99.90;;;-146.47;100.00;66290.13;5041610;28;20258;-81
2021/01/28 04:12:31;;;;;;;317.40;45.07;;;7.70;99.90;;;-146.47;100.00;66290.13;5040079;28;20211;-81
2021/01/28 04:15:18;;;;;;;335.50;44.47;;;7.70;99.90;;;-146.47;100.00;66290.13;5034031;28;20207;-80
2021/01/28 04:18:04;;;;;;;379.93;52.63;;;7.60;99.90;;;-146.47;100.00;66290.13;5042729;28;20242;-81
2021/01/28 04:20:50;;;;;;;379.37;51.63;;;7.70;99.90;;;-146.47;100.00;66290.13;5036767;28;20253;-80
2021/01/28 04:23:36;;;;;;;378.73;51.57;;;7.60;99.90;;;-146.47;100.00;66290.13;5036605;28;20228;-80
2021/01/28 04:26:21;;;;;;;415.33;53.20;;;7.60;99.90;;;-146.47;100.00;66290.13;5038983;28;20581;-81
2021/01/28 04:29:07;;;;;;;376.93;49.30;;;7.60;99.90;;;-146.47;100.00;66290.13;5038506;28;20222;-80
2021/01/28 04:31:52;;;;;;;385.37;51.70;;;7.60;99.90;;;-146.47;100.00;66290.13;5038932;28;20234;-80
2021/01/28 04:34:37;;;;;;;411.00;55.43;;;7.60;99.90;;;-146.47;100.00;66290.13;5035843;28;20194;-81
2021/01/28 04:37:23;;;;;;;415.40;55.13;;;7.60;99.90;;;-146.47;100.00;66290.13;5040636;28;20220;-81
2021/01/28 04:40:21;;;;;;;336.43;45.53;;;7.60;99.90;;;-146.47;100.00;66290.13;5037464;28;20960;-81
2021/01/28 04:43:20;;;;;;;350.43;47.10;;;7.60;99.90;;;-146.47;100.00;66290.13;5036518;28;20227;-80
2021/01/28 04:46:11;;;;;;;365.67;49.23;;;7.60;99.90;;;-146.47;100.00;66290.13;5036387;28;20199;-79
2021/01/28 04:48:59;;;;;;;334.93;47.20;;;7.60;99.90;;;-146.47;100.00;66290.13;5039336;28;20715;-81
2021/01/28 04:51:47;;;;;;;312.60;43.83;;;7.50;99.90;;;-146.47;100.00;66290.13;5036901;28;20203;-80
2021/01/28 04:54:35;;;;;;;266.43;41.10;;;7.50;99.90;;;-146.47;100.00;66290.13;5040080;28;20199;-82
2021/01/28 04:57:22;;;;;;;202.20;37.33;;;7.50;99.90;;;-146.47;100.00;66290.13;5039307;28;20195;-80
2021/01/28 05:00:09;;;;;;;180.93;36.90;;;7.50;99.90;;;-146.47;100.00;66290.13;5037488;28;20212;-80
2021/01/28 05:03:12;;;;;;;184.23;35.53;;;7.50;99.90;;;-146.47;100.00;66290.13;5028400;28;20215;-81
2021/01/28 05:06:00;;;;;;;365.20;47.40;;;7.50;99.90;;;-146.47;100.00;66290.13;5036130;28;20316;-80
2021/01/28 05:08:45;;;;;;;250.70;38.83;;;7.50;99.90;;;-146.47;100.00;66290.13;5036353;28;20228;-80
2021/01/28 05:11:35;;;;;;;287.57;41.90;;;7.50;99.90;;;-146.47;100.00;66290.13;5029818;28;20212;-80
2021/01/28 05:14:25;;;;;;;189.23;34.67;;;7.50;99.90;;;-146.47;100.00;66290.13;5036096;28;20226;-80
2021/01/28 05:17:26;;;;;;;270.87;39.40;;;7.50;99.90;;;-146.47;100.00;66290.13;5038969;28;20218;-81
2021/01/28 05:20:21;;;;;;;225.87;38.30;;;7.50;99.90;;;-146.47;100.00;66290.13;5026809;28;20215;-81
2021/01/28 05:23:26;;;;;;;217.70;38.83;;;7.50;99.90;;;-146.47;100.00;66290.13;5022899;28;20296;-80
2021/01/28 05:26:37;;;;;;;165.37;34.17;;;7.40;99.90;;;-146.47;100.00;66290.13;5038304;28;20199;-79
2021/01/28 05:29:28;;;;;;;121.40;29.23;;;7.40;99.90;;;-146.47;100.00;66290.13;5028927;28;20243;-79
2021/01/28 05:32:37;;;;;;;142.23;33.60;;;7.40;99.90;;;-146.47;100.00;66290.13;5035258;28;20223;-81
2021/01/28 05:35:29;;;;;;;133.30;31.17;;;7.40;99.90;;;-146.47;100.00;66290.13;5039526;28;20687;-80
2021/01/28 05:38:28;;;;;;;119.87;29.23;;;7.40;99.90;;;-146.47;100.00;66290.13;5037008;28;20214;-80
2021/01/28 05:41:29;;;;;;;91.57;27.33;;;7.40;99.90;;;-146.47;100.00;66290.13;5038448;28;20251;-79
2021/01/28 05:44:21;;;;;;;106.47;29.53;;;7.30;99.90;;;-146.47;100.00;66290.13;5038364;28;20285;-80
2021/01/28 05:47:11;;;;;;;92.17;28.50;;;7.30;99.90;;;-146.47;100.00;66290.13;5037582;28;20203;-81
2021/01/28 05:50:17;;;;;;;84.23;27.23;;;7.30;99.90;;;-146.47;100.00;66290.13;5035694;28;20199;-79
2021/01/28 05:53:11;;;;;;;90.43;27.70;;;7.30;99.90;;;-146.47;100.00;66290.13;5037184;28;20247;-80
2021/01/28 05:55:56;;;;;;;95.50;26.53;;;7.20;99.90;;;-146.47;100.00;66290.13;5037310;28;20231;-81
2021/01/28 05:58:50;;;;;;;90.60;27.27;;;7.20;99.90;;;-146.47;100.00;66290.13;5036500;28;20234;-80
2021/01/28 06:02:00;;;;;;;78.60;24.20;;;7.20;99.90;;;-146.47;100.00;66290.13;5036245;28;20214;-80
2021/01/28 06:05:11;;;;;;;67.37;23.97;;;7.20;99.90;;;-146.47;100.00;66290.13;5027857;28;20242;-79
2021/01/28 06:08:36;;;;;;;79.60;23.03;;;7.20;99.90;;;-146.47;100.00;66290.13;5035738;28;20215;-81
2021/01/28 06:11:57;;;;;;;71.57;24.33;;;7.20;99.90;;;-146.47;100.00;66290.13;5038023;28;20288;-80
2021/01/28 06:15:21;;;;;;;71.63;22.03;;;7.10;99.90;;;-146.47;100.00;66290.13;5039798;28;20226;-78
2021/01/28 06:18:54;;;;;;;67.37;22.37;;;7.10;99.90;;;-146.47;100.00;66290.13;5039066;28;20328;-81
2021/01/28 06:22:00;;;;;;;62.80;22.23;;;7.10;99.90;;;-146.47;100.00;66290.13;5030586;28;20262;-81
2021/01/28 06:25:20;;;;;;;59.43;22.47;;;7.10;99.90;;;-146.47;100.00;66290.13;5037273;28;20250;-81
2021/01/28 06:28:29;;;;;;;59.37;22.97;;;7.10;99.90;;;-146.47;100.00;66290.13;5035786;28;20235;-80
2021/01/28 06:31:27;;;;;;;55.00;21.93;;;7.10;99.90;;;-146.47;100.00;66290.13;5031774;28;20214;-80
2021/01/28 06:34:45;;;;;;;54.83;21.20;;;7.00;99.90;;;-146.47;100.00;66290.13;5036909;28;20279;-81
2021/01/28 06:37:55;;;;;;;48.17;21.10;;;7.00;99.90;;;-146.47;100.00;66290.13;5040554;28;20655;-81
2021/01/28 06:41:01;;;;;;;42.63;18.57;;;7.00;99.90;;;-146.47;100.00;66290.13;5040530;28;20250;-82
2021/01/28 06:43:56;;;;;;;47.63;20.13;;;7.00;99.90;;;-146.47;100.00;66290.13;5040484;28;20278;-81
2021/01/28 06:46:51;;;;;;;47.50;18.00;;;7.00;99.90;;;-146.47;100.00;66290.13;5043336;28;20323;-79
2021/01/28 06:49:50;;;;;;;38.43;17.90;;;7.00;99.90;;;-146.47;100.00;66290.13;5038978;28;20234;-80
2021/01/28 06:52:59;;;;;;;41.77;19.20;;;7.00;99.90;;;-146.47;100.00;66290.13;5036630;28;20203;-80
2021/01/28 06:55:56;;;;;;;40.73;17.83;;;7.00;99.90;;;-146.47;100.00;66290.13;5033115;28;20200;-79
2021/01/28 06:58:56;;;;;;;43.67;19.07;;;6.90;99.90;;;-146.47;100.00;66290.13;5038028;28;20723;-80
2021/01/28 07:01:55;;;;;;;39.47;18.40;;;6.90;99.90;;;-146.47;100.00;66290.13;5036428;28;20250;-80
2021/01/28 07:04:53;;;;;;;42.97;17.37;;;6.90;99.90;;;-146.47;100.00;66290.13;5035614;28;20207;-79
2021/01/28 07:07:49;;;;;;;34.07;15.97;;;6.90;99.90;;;-146.47;100.00;66290.13;5045202;28;20250;-80
2021/01/28 07:10:38;;;;;;;31.67;15.50;;;6.90;99.90;;;-146.47;100.00;66290.13;5038531;28;20207;-81
2021/01/28 07:13:28;;;;;;;38.70;15.93;;;6.90;99.90;;;-146.47;100.00;66290.13;5038664;28;20327;-81
2021/01/28 07:16:22;;;;;;;33.10;15.67;;;6.90;99.90;;;-146.47;100.00;66290.13;5028148;28;20215;-79
2021/01/28 07:19:20;;;;;;;29.30;15.77;;;6.90;99.90;;;-146.47;100.00;66290.13;5038791;28;20287;-81
2021/01/28 07:22:28;;;;;;;31.27;15.33;;;6.90;99.90;;;-146.47;100.00;66290.13;5040655;28;20235;-80
2021/01/28 07:25:32;;;;;;;30.77;15.03;;;6.90;99.90;;;-146.47;100.00;66290.13;5033989;28;20215;-80
2021/01/28 07:28:28;;;;;;;28.90;15.07;;;6.90;99.90;;;-146.47;100.00;66290.13;5031832;28;20758;-80
2021/01/28 07:31:42;;;;;;;37.73;16.87;;;6.80;99.90;;;-146.47;100.00;66290.13;5040758;28;20211;-81
2021/01/28 07:34:28;;;;;;;29.73;14.47;;;6.80;99.90;;;-146.47;100.00;66290.13;5033235;28;20203;-81
2021/01/28 07:37:28;;;;;;;33.50;15.90;;;6.80;99.90;;;-146.47;100.00;66290.13;5043414;28;20214;-79
2021/01/28 07:40:57;;;;;;;36.40;16.70;;;6.80;99.90;;;-146.47;100.00;66290.13;5030855;28;20211;-80
2021/01/28 07:43:46;;;;;;;28.80;15.43;;;6.80;99.90;;;-146.47;100.00;66290.13;5033395;28;20266;-79
2021/01/28 07:46:39;;;;;;;31.03;15.40;;;6.80;99.90;;;-146.47;100.00;66290.13;5039973;28;20211;-81
2021/01/28 07:49:27;;;;;;;35.90;16.60;;;6.80;99.90;;;-146.47;100.00;66290.13;5031748;28;20286;-79
2021/01/28 07:52:35;;;;;;;33.90;16.37;;;6.80;99.90;;;-146.47;100.00;66290.13;5029028;28;20219;-80
2021/01/28 07:55:42;;;;;;;30.87;13.80;;;6.70;99.90;;;-146.47;100.00;66290.13;5015148;28;20271;-80
2021/01/28 07:58:33;;;;;;;25.87;13.00;;;6.70;99.90;;;-146.47;100.00;66290.13;5040165;28;20739;-80
2021/01/28 08:01:21;;;;;;;26.37;13.80;;;6.70;99.90;;;-146.47;100.00;66290.13;5023503;28;20243;-81
2021/01/28 08:04:30;;;;;;;25.20;13.10;;;6.80;99.90;;;-146.47;100.00;66290.13;5037715;28;22051;-81
2021/01/28 08:07:39;;;;;;;24.27;13.03;;;6.70;99.90;;;-146.47;100.00;66290.13;5042292;28;20235;-80
2021/01/28 08:10:29;;;;;;;23.20;12.90;;;6.70;99.90;;;-146.47;100.00;66290.13;5041850;28;20343;-79
2021/01/28 08:13:24;;;;;;;23.40;12.97;;;6.70;99.90;;;-146.47;100.00;66290.13;5039643;28;20359;-80
2021/01/28 08:16:18;;;;;;;23.47;12.43;;;6.70;99.90;;;-146.47;100.00;66290.13;5034149;28;20271;-79
2021/01/28 08:19:13;;;;;;;23.53;12.20;;;6.70;99.90;;;-146.47;100.00;66290.13;5039304;28;20274;-79
2021/01/28 08:22:12;;;;;;;20.30;11.13;;;6.70;99.90;;;-146.47;100.00;66290.13;5037484;28;20246;-80
2021/01/28 08:24:58;;;;;;;22.50;11.60;;;6.70;99.90;;;-146.47;100.00;66290.13;5035663;28;20203;-79
2021/01/28 08:27:43;;;;;;;17.63;11.20;;;6.60;99.90;;;-146.47;100.00;66290.13;5038501;28;20274;-80
2021/01/28 08:30:28;;;;;;;23.30;11.70;;;6.70;99.90;;;-146.47;100.00;66290.13;5028616;28;20271;-79
2021/01/28 08:33:25;;;;;;;18.80;11.00;;;6.70;99.90;;;-146.47;100.00;66290.13;5029486;28;20208;-79
2021/01/28 08:36:24;;;;;;;20.70;11.40;;;6.70;99.90;;;-146.47;100.00;66290.13;5039904;28;20227;-79
2021/01/28 08:39:11;;;;;;;18.63;10.17;;;6.70;99.90;;;-146.47;100.00;66290.13;5031064;28;20228;-79
2021/01/28 08:42:05;;;;;;;20.00;10.60;;;6.60;99.90;;;-146.47;100.00;66290.13;5030039;28;20291;-80
2021/01/28 08:45:13;;;;;;;17.23;9.93;;;6.60;99.90;;;-146.47;100.00;66290.13;5040485;28;20641;-79
2021/01/28 08:48:01;;;;;;;19.57;10.73;;;6.60;99.90;;;-146.47;100.00;66290.13;5038499;28;20248;-80
2021/01/28 08:50:47;;;;;;;16.10;9.97;;;6.60;99.90;;;-146.47;100.00;66290.13;5033550;28;20295;-79
2021/01/28 08:53:32;;;;;;;16.17;9.33;;;6.60;99.90;;;-146.47;100.00;66290.13;5035745;28;20222;-81
2021/01/28 08:56:25;;;;;;;17.43;9.33;;;6.60;99.90;;;-146.47;100.00;66290.13;5039488;28;20253;-81
2021/01/28 08:59:15;;;;;;;16.37;9.30;;;6.60;99.90;;;-146.47;100.00;66290.13;5036804;28;20315;-81
2021/01/28 09:02:03;;;;;;;17.00;9.97;;;6.60;99.90;;;-146.47;100.00;66290.13;5034645;28;20203;-80
2021/01/28 09:05:02;;;;;;;16.37;9.27;;;6.60;99.90;;;-146.47;100.00;66290.13;5032883;28;20223;-79
2021/01/28 09:07:53;;;;;;;16.33;8.87;;;6.60;99.90;;;-146.47;100.00;66290.13;5034063;28;20288;-80
2021/01/28 09:10:42;;;;;;;18.03;10.43;;;6.60;99.90;;;-146.47;100.00;66290.13;5037395;28;20254;-79
2021/01/28 09:13:30;;;;;;;20.47;11.63;;;6.60;99.90;;;-146.47;100.00;66290.13;5030681;28;20340;-80
2021/01/28 09:16:18;;;;;;;23.90;13.23;;;6.60;99.90;;;-146.47;100.00;66290.13;5027681;28;20254;-81
2021/01/28 09:19:14;;;;;;;20.00;12.13;;;6.60;99.90;;;-146.47;100.00;66290.13;5032659;28;20231;-80
2021/01/28 09:22:04;;;;;;;23.47;12.87;;;6.60;99.90;;;-146.47;100.00;66290.13;5026033;28;20258;-80
2021/01/28 09:24:51;;;;;;;21.00;12.83;;;6.70;99.90;;;-146.47;100.00;66290.13;5035329;28;20695;-80
2021/01/28 09:27:38;;;;;;;23.73;14.70;;;6.60;99.90;;;-146.47;100.00;66290.13;5037004;28;20258;-81
2021/01/28 09:30:32;;;;;;;21.47;12.80;;;6.70;99.90;;;-146.47;100.00;66290.13;5035870;28;20495;-80
2021/01/28 09:33:34;;;;;;;24.63;13.37;;;6.60;99.90;;;-146.47;100.00;66290.13;5027349;28;20208;-80
2021/01/28 09:36:25;;;;;;;23.23;13.97;;;6.60;99.90;;;-146.47;100.00;66290.13;5035887;28;20221;-80
2021/01/28 09:39:27;;;;;;;20.53;13.27;;;6.60;99.90;;;-146.47;100.00;66290.13;5024819;28;20646;-80
2021/01/28 09:42:25;;;;;;;21.23;14.47;;;6.60;99.90;;;-146.47;100.00;66290.13;5036246;28;20203;-80
2021/01/28 09:45:19;;;;;;;23.07;14.33;;;6.60;99.90;;;-146.47;100.00;66290.13;5024067;28;20226;-81
2021/01/28 09:48:05;;;;;;;21.67;14.17;;;6.60;99.90;;;-146.47;100.00;66290.13;5033759;28;20231;-81
2021/01/28 09:50:50;;;;;;;23.63;13.30;;;6.60;99.90;;;-146.47;100.00;66290.13;5027827;28;20211;-80
2021/01/28 09:53:36;;;;;;;25.90;14.53;;;6.60;99.90;;;-146.47;100.00;66290.13;5034922;28;20243;-80
2021/01/28 09:56:21;;;;;;;23.47;13.60;;;6.60;99.90;;;-146.47;100.00;66290.13;5036759;28;20203;-80
2021/01/28 09:59:08;;;;;;;23.73;13.47;;;6.80;99.90;;;-146.47;100.00;66290.13;5027375;28;20238;-81
2021/01/28 10:01:55;;;;;;;27.93;15.97;;;6.70;99.90;;;-146.47;100.00;66290.13;5030214;28;20269;-79
2021/01/28 10:04:43;;;;;;;29.00;15.40;;;6.60;99.90;;;-146.47;100.00;66290.13;5037269;28;20199;-80
2021/01/28 10:07:28;;;;;;;27.17;15.43;;;6.70;99.90;;;-146.47;100.00;66290.13;5035790;28;20629;-81
2021/01/28 10:10:15;;;;;;;28.10;17.50;;;6.70;99.90;;;-146.47;100.00;66290.13;5037164;28;20778;-80
2021/01/28 10:13:04;;;;;;;26.67;15.83;;;6.70;99.90;;;-146.47;100.00;66290.13;5039604;28;20243;-80
2021/01/28 10:15:51;;;;;;;29.03;17.33;;;6.70;99.90;;;-146.47;100.00;66290.13;5037749;28;20207;-79
2021/01/28 10:18:36;;;;;;;22.03;13.87;;;6.70;99.90;;;-146.47;100.00;66290.13;5032028;28;20235;-80
2021/01/28 10:21:21;;;;;;;25.33;15.37;;;6.70;99.90;;;-146.47;100.00;66290.13;5042587;28;20207;-79
2021/01/28 10:24:07;;;;;;;22.07;13.53;;;6.70;99.90;;;-146.47;100.00;66290.13;5042687;28;20230;-80
2021/01/28 10:26:52;;;;;;;16.53;11.90;;;6.70;99.90;;;-146.47;100.00;66290.13;5044500;28;20272;-80
2021/01/28 10:29:39;;;;;;;16.57;11.23;;;6.90;99.90;;;-146.47;100.00;66290.13;5042071;28;20305;-81
2021/01/28 10:32:26;;;;;;;15.17;11.03;;;6.70;99.90;;;-146.47;100.00;66290.13;5042864;28;20270;-80
2021/01/28 10:35:15;;;;;;;16.50;10.90;;;6.70;99.90;;;-146.47;100.00;66290.13;5033236;28;20279;-80
2021/01/28 10:38:01;;;;;;;15.30;10.50;;;6.70;99.90;;;-146.47;100.00;66290.13;5042287;28;20250;-79
2021/01/28 10:40:46;;;;;;;19.07;12.60;;;6.70;99.90;;;-146.47;100.00;66290.13;5040223;28;20211;-81
2021/01/28 10:43:31;;;;;;;18.17;12.27;;;6.70;99.90;;;-146.47;100.00;66290.13;5035846;28;20227;-81
2021/01/28 10:46:16;;;;;;;17.40;11.90;;;6.70;99.90;;;-146.47;100.00;66290.13;5043884;28;20218;-81
2021/01/28 10:49:03;;;;;;;16.90;11.67;;;6.70;99.90;;;-146.47;100.00;66290.13;5038677;28;20235;-81
2021/01/28 10:51:48;;;;;;;19.20;12.00;;;6.70;99.90;;;-146.47;100.00;66290.13;5040808;28;20203;-80
2021/01/28 10:54:33;;;;;;;16.97;11.77;;;6.70;99.90;;;-146.47;100.00;66290.13;5043336;28;20311;-80
2021/01/28 10:57:18;;;;;;;17.33;10.53;;;6.70;99.90;;;-146.47;100.00;66290.13;5032248;28;20202;-80
2021/01/28 11:00:06;;;;;;;17.67;12.27;;;6.70;99.90;;;-146.47;100.00;66290.13;5041919;28;20219;-81
2021/01/28 11:02:51;;;;;;;15.43;10.87;;;6.70;99.90;;;-146.47;100.00;66290.13;5034908;28;20223;-80
2021/01/28 11:05:37;;;;;;;17.20;11.00;;;6.70;99.90;;;-146.47;100.00;66290.13;5042644;28;20279;-81
2021/01/28 11:08:23;;;;;;;14.13;10.50;;;6.70;99.90;;;-146.47;100.00;66290.13;5043884;28;20259;-80
2021/01/28 11:11:09;;;;;;;16.20;10.90;;;6.70;99.90;;;-146.47;100.00;66290.13;5041800;28;20231;-81
2021/01/28 11:13:55;;;;;;;16.47;11.27;;;6.70;99.90;;;-146.47;100.00;66290.13;5044338;28;20327;-81
2021/01/28 11:16:43;;;;;;;15.87;11.73;;;6.70;99.90;;;-146.47;100.00;66290.13;5041220;28;20204;-79
2021/01/28 11:19:28;;;;;;;17.07;11.67;;;6.70;99.90;;;-146.47;100.00;66290.13;5034184;28;20231;-80
2021/01/28 11:22:14;;;;;;;18.20;11.00;;;6.70;99.90;;;-146.47;100.00;66290.13;5042293;28;20215;-79
2021/01/28 11:24:59;;;;;;;18.47;12.40;;;6.70;99.90;;;-146.47;100.00;66290.13;5043179;28;20207;-79
2021/01/28 11:27:45;;;;;;;17.07;12.57;;;6.70;99.90;;;-146.47;100.00;66290.13;5041644;28;20226;-81